»·PEaware :: UAL9 YSSY-KSEA

UAL9 :: YSSY-KSEA

FLIGHT INFORMATION

Flight Status: Arrived
Operator:
United Airlines
More flights by this operator :: More flights under this callsign
Pilot: Scott L. (17677)
Aircraft: Unknown
(A359)
More flights by this aircraft type
Origin: YSSY Kingsford Smith Intl
Australia
Destination: KSEA Seattle-Tacoma Intl
United States
More flights between these airports :: More routes between these airports
Route: WOL MARLN 28S158E 18S170E 13S175E/N0493F370 05S179W 02N173W 10N166W/N0481F390 15N162W APACK 30N150W 38N140W/N0472F410 44N130W SEDAR LATAY HAWKZ7
File this flight plan on PilotEdge
Remarks: RMK / SIMBRIEF
Altitude:
(Current/Filed)
35,000ft
Speed:
(Current/Filed)
497kts
Departed: 30-Dec-20 10:20 PM
Arrived: 31-Dec-20 11:49 AM
Distance/Time
Traveled:
6730nm/13:28
Distance/Time
To Go:
Arrived

Flight Plot

Page will automatically refresh every two minutes.

Flight plan parsing failed; only flown route is shown


Map Options




Map Legend


Flown Route
Filed Route
Departure Airport
Arrival Airport
Navaid (VOR, NDB)
Fix

Horizontal Profiles

Position Reports

Time Latitude Longitude Heading Altitude Ground
Speed
30-Dec-20 22:18 -31.770744 154.413556 36 35063ft 496kts
30-Dec-20 22:19 -31.665229 154.518994 36 35063ft 496kts
30-Dec-20 22:20 -31.560344 154.623538 36 35063ft 496kts
30-Dec-20 22:21 -31.455349 154.728319 35 35063ft 495kts
30-Dec-20 22:22 -31.350534 154.832374 35 35063ft 495kts
30-Dec-20 22:23 -31.245336 154.936282 35 35054ft 495kts
30-Dec-20 22:24 -31.140000 155.040007 36 35039ft 495kts
30-Dec-20 22:25 -31.034707 155.143403 36 35037ft 495kts
30-Dec-20 22:26 -30.929424 155.246439 36 35036ft 498kts
30-Dec-20 22:27 -30.822670 155.350265 36 35037ft 500kts
30-Dec-20 22:28 -30.716160 155.453727 36 35037ft 500kts
30-Dec-20 22:29 -30.609181 155.557496 36 35037ft 500kts
30-Dec-20 22:30 -30.502238 155.660958 35 35035ft 500kts
30-Dec-20 22:31 -30.395765 155.764187 35 35037ft 500kts
30-Dec-20 22:32 -30.288958 155.866973 35 35028ft 500kts
30-Dec-20 22:33 -30.181767 155.969735 35 35013ft 500kts
30-Dec-20 22:34 -30.074766 156.072019 35 35009ft 500kts
30-Dec-20 22:35 -29.967245 156.174500 35 35009ft 500kts
30-Dec-20 22:36 -29.860225 156.276053 35 35009ft 500kts
30-Dec-20 22:37 -29.752436 156.377842 35 35010ft 500kts
30-Dec-20 22:38 -29.645252 156.479088 35 35009ft 500kts
30-Dec-20 22:39 -29.537778 156.580364 35 35013ft 500kts
30-Dec-20 22:40 -29.430120 156.681682 35 35023ft 500kts
30-Dec-20 22:41 -29.322946 156.782546 35 35025ft 500kts
30-Dec-20 22:42 -29.215282 156.883189 35 35022ft 500kts
30-Dec-20 22:43 -29.107496 156.983620 35 35031ft 500kts
30-Dec-20 22:44 -28.999533 157.084027 34 35034ft 501kts
30-Dec-20 22:45 -28.892335 157.183298 33 35036ft 500kts
30-Dec-20 22:46 -28.783080 157.283760 33 35035ft 499kts
30-Dec-20 22:47 -28.675324 157.382978 33 35035ft 499kts
30-Dec-20 22:48 -28.567281 157.482261 33 35035ft 499kts
30-Dec-20 22:49 -28.459259 157.581254 33 35035ft 499kts
30-Dec-20 22:50 -28.351039 157.680312 33 35034ft 499kts
30-Dec-20 22:51 -28.243098 157.779084 33 35035ft 499kts
30-Dec-20 22:52 -28.134874 157.877411 32 35035ft 499kts
30-Dec-20 22:54 -28.027390 157.975767 36 35035ft 500kts
30-Dec-20 22:55 -27.932001 158.092023 45 35035ft 506kts
30-Dec-20 22:56 -27.842818 158.213613 45 35035ft 505kts
30-Dec-20 22:57 -27.752467 158.336035 45 35035ft 505kts
30-Dec-20 22:58 -27.663161 158.456920 45 35035ft 505kts
30-Dec-20 22:59 -27.573615 158.577808 45 35035ft 505kts
30-Dec-20 23:00 -27.483659 158.699142 45 35034ft 504kts
30-Dec-20 23:01 -27.392919 158.821376 44 35035ft 504kts
30-Dec-20 23:02 -27.303042 158.941799 44 35036ft 503kts
30-Dec-20 23:03 -27.213211 159.061808 43 35037ft 500kts
30-Dec-20 23:04 -27.124065 159.180436 43 35035ft 498kts
30-Dec-20 23:05 -27.034767 159.298918 43 35034ft 497kts
30-Dec-20 23:06 -26.945107 159.417646 42 35035ft 501kts
30-Dec-20 23:07 -26.853893 159.537729 42 35033ft 507kts
30-Dec-20 23:08 -26.762666 159.657478 42 35033ft 507kts
30-Dec-20 23:09 -26.672188 159.776915 42 35034ft 506kts
30-Dec-20 23:10 -26.580376 159.897292 42 35035ft 506kts
30-Dec-20 23:11 -26.488744 160.016997 42 35035ft 505kts
30-Dec-20 23:11 -26.412823 160.115922 42 35034ft 505kts
30-Dec-20 23:12 -26.321337 160.234820 42 35036ft 506kts
30-Dec-20 23:14 -26.214345 160.373513 42 35034ft 506kts
30-Dec-20 23:14 -26.138225 160.471941 42 35036ft 505kts
30-Dec-20 23:15 -26.046154 160.590655 42 35034ft 505kts
30-Dec-20 23:16 -25.954955 160.708301 41 35035ft 504kts
30-Dec-20 23:17 -25.863157 160.826164 41 35097ft 507kts
30-Dec-20 23:18 -25.769186 160.945822 43 35430ft 517kts
30-Dec-20 23:19 -25.674652 161.066476 44 36053ft 519kts
30-Dec-20 23:20 -25.579973 161.187173 44 36744ft 518kts
30-Dec-20 23:21 -25.485266 161.307399 44 36992ft 519kts
30-Dec-20 23:22 -25.390372 161.427603 43 36988ft 518kts
30-Dec-20 23:23 -25.295470 161.547451 44 36989ft 518kts
30-Dec-20 23:24 -25.200399 161.667246 43 36983ft 519kts
30-Dec-20 23:25 -25.106097 161.786324 43 36991ft 518kts
30-Dec-20 23:26 -25.011826 161.904425 45 36991ft 502kts
30-Dec-20 23:27 -24.920709 162.018382 46 36989ft 492kts
30-Dec-20 23:28 -24.830124 162.130972 46 36989ft 493kts
30-Dec-20 23:29 -24.739389 162.243644 46 36988ft 492kts
30-Dec-20 23:30 -24.648651 162.356265 46 36988ft 492kts
30-Dec-20 23:31 -24.557904 162.468646 46 36988ft 492kts
30-Dec-20 23:32 -24.466946 162.581025 46 36988ft 492kts
30-Dec-20 23:33 -24.376097 162.693205 46 36988ft 492kts
30-Dec-20 23:34 -24.285350 162.805208 45 36988ft 492kts
30-Dec-20 23:35 -24.194181 162.917097 45 36989ft 492kts
30-Dec-20 23:36 -24.103015 163.028682 45 36988ft 493kts
30-Dec-20 23:37 -24.011173 163.140804 46 36989ft 496kts
30-Dec-20 23:38 -23.918725 163.253458 46 36986ft 498kts
30-Dec-20 23:39 -23.826081 163.365569 46 36988ft 498kts
30-Dec-20 23:40 -23.733224 163.477960 46 36988ft 498kts
30-Dec-20 23:41 -23.640488 163.590147 46 36988ft 499kts
30-Dec-20 23:42 -23.547663 163.702464 46 36986ft 498kts
30-Dec-20 23:43 -23.454928 163.814518 45 36989ft 498kts
30-Dec-20 23:44 -23.361697 163.926584 45 36988ft 498kts
30-Dec-20 23:45 -23.268694 164.038098 45 36988ft 498kts
30-Dec-20 23:46 -23.175535 164.149554 45 36988ft 498kts
30-Dec-20 23:47 -23.082365 164.260757 45 36987ft 498kts
30-Dec-20 23:48 -22.989034 164.371923 45 36989ft 500kts
30-Dec-20 23:49 -22.894926 164.483749 45 36986ft 503kts
30-Dec-20 23:50 -22.800056 164.595614 45 36989ft 505kts
30-Dec-20 23:51 -22.705411 164.707756 45 36988ft 504kts
30-Dec-20 23:52 -22.610441 164.820204 45 36988ft 505kts
30-Dec-20 23:53 -22.516005 164.931477 45 36986ft 504kts
30-Dec-20 23:54 -22.420736 165.043465 45 36988ft 505kts
30-Dec-20 23:55 -22.326070 165.154487 44 36988ft 505kts
30-Dec-20 23:56 -22.230206 165.266631 44 36988ft 506kts
30-Dec-20 23:57 -22.134734 165.378104 44 36988ft 505kts
30-Dec-20 23:58 -22.039478 165.489095 44 36988ft 506kts
30-Dec-20 23:59 -21.943705 165.600449 44 36989ft 506kts
31-Dec-20 00:00 -21.848523 165.710855 44 36988ft 505kts
31-Dec-20 00:01 -21.752928 165.821504 44 36988ft 506kts
31-Dec-20 00:02 -21.657010 165.932316 44 36988ft 506kts
31-Dec-20 00:03 -21.561273 166.042696 44 36988ft 505kts
31-Dec-20 00:04 -21.465452 166.152951 44 36988ft 505kts
31-Dec-20 00:05 -21.370069 166.262468 44 36988ft 505kts
31-Dec-20 00:06 -21.273934 166.372626 44 36988ft 505kts
31-Dec-20 00:07 -21.177592 166.482787 44 36988ft 505kts
31-Dec-20 00:08 -21.081748 166.592114 44 36989ft 505kts
31-Dec-20 00:09 -20.985874 166.701476 45 36989ft 502kts
31-Dec-20 00:10 -20.890535 166.810252 45 36987ft 500kts
31-Dec-20 00:11 -20.794947 166.918187 45 36988ft 500kts
31-Dec-20 00:12 -20.699322 167.026350 45 36988ft 500kts
31-Dec-20 00:13 -20.603856 167.134204 45 36988ft 501kts
31-Dec-20 00:14 -20.508150 167.242128 45 36988ft 500kts
31-Dec-20 00:15 -20.412662 167.349598 45 36988ft 500kts
31-Dec-20 00:16 -20.317093 167.456958 45 36988ft 500kts
31-Dec-20 00:17 -20.221308 167.564349 45 36988ft 501kts
31-Dec-20 00:18 -20.125534 167.671594 45 36986ft 500kts
31-Dec-20 00:19 -20.029914 167.778873 45 36953ft 500kts
31-Dec-20 00:20 -19.933784 167.886099 45 36906ft 501kts
31-Dec-20 00:21 -19.837658 167.992665 45 36898ft 500kts
31-Dec-20 00:22 -19.741396 168.099303 45 36898ft 501kts
31-Dec-20 00:23 -19.645140 168.205982 45 36898ft 501kts
31-Dec-20 00:24 -19.549055 168.312298 45 36898ft 501kts
31-Dec-20 00:25 -19.453153 168.418212 45 36898ft 501kts
31-Dec-20 00:26 -19.356275 168.525010 45 36898ft 501kts
31-Dec-20 00:27 -19.259730 168.631253 45 36898ft 501kts
31-Dec-20 00:28 -19.163445 168.737461 45 36898ft 501kts
31-Dec-20 00:29 -19.067099 168.843260 44 36898ft 501kts
31-Dec-20 00:30 -18.970572 168.948873 45 36899ft 497kts
31-Dec-20 00:31 -18.875034 169.053133 45 36899ft 493kts
31-Dec-20 00:32 -18.779487 169.156896 45 36897ft 495kts
31-Dec-20 00:33 -18.683340 169.261517 45 36898ft 497kts
31-Dec-20 00:34 -18.587367 169.365820 45 36898ft 497kts
31-Dec-20 00:35 -18.491221 169.470132 45 36897ft 496kts
31-Dec-20 00:36 -18.395153 169.574171 45 36898ft 496kts
31-Dec-20 00:37 -18.299065 169.678162 45 36898ft 497kts
31-Dec-20 00:38 -18.202752 169.782473 45 36898ft 496kts
31-Dec-20 00:39 -18.106440 169.886150 45 36899ft 497kts
31-Dec-20 00:40 -18.009970 169.989681 45 36898ft 497kts
31-Dec-20 00:41 -17.912415 170.091947 44 36897ft 496kts
31-Dec-20 00:42 -17.813669 170.193708 44 36898ft 496kts
31-Dec-20 00:44 -17.715533 170.295056 44 36897ft 496kts
31-Dec-20 00:45 -17.617256 170.396529 44 36897ft 497kts
31-Dec-20 00:46 -17.519338 170.497464 44 36899ft 496kts
31-Dec-20 00:47 -17.420560 170.599131 44 36898ft 497kts
31-Dec-20 00:48 -17.322218 170.700456 44 36899ft 497kts
31-Dec-20 00:49 -17.223805 170.801746 43 36898ft 497kts
31-Dec-20 00:50 -17.125252 170.902736 43 36897ft 497kts
31-Dec-20 00:51 -17.026457 171.003713 44 36898ft 498kts
31-Dec-20 00:52 -16.928010 171.104232 45 36897ft 492kts
31-Dec-20 00:53 -16.830283 171.203546 44 36897ft 491kts
31-Dec-20 00:54 -16.732676 171.302694 45 36896ft 491kts
31-Dec-20 00:55 -16.634680 171.402274 44 36899ft 491kts
31-Dec-20 00:56 -16.537085 171.501317 44 36898ft 491kts
31-Dec-20 00:57 -16.439522 171.600199 45 36899ft 491kts
31-Dec-20 00:57 -16.357705 171.683158 44 36896ft 491kts
31-Dec-20 00:59 -16.243829 171.798667 44 36898ft 491kts
31-Dec-20 01:00 -16.145843 171.897568 44 36898ft 491kts
31-Dec-20 01:01 -16.047768 171.996375 44 36897ft 491kts
31-Dec-20 01:01 -15.966312 172.078336 44 36895ft 491kts
31-Dec-20 01:02 -15.868011 172.176978 44 36898ft 491kts
31-Dec-20 01:03 -15.769779 172.275100 44 36898ft 492kts
31-Dec-20 01:04 -15.671487 172.373538 44 36899ft 491kts
31-Dec-20 01:05 -15.572949 172.472108 44 36897ft 498kts
31-Dec-20 01:06 -15.473692 172.571304 44 36899ft 498kts
31-Dec-20 01:07 -15.373858 172.670984 44 36898ft 497kts
31-Dec-20 01:08 -15.274455 172.770490 44 36898ft 497kts
31-Dec-20 01:09 -15.175188 172.869328 44 36899ft 496kts
31-Dec-20 01:10 -15.075815 172.968073 44 36910ft 495kts
31-Dec-20 01:11 -14.976905 173.066141 45 36922ft 491kts
31-Dec-20 01:12 -14.878821 173.163236 45 36926ft 483kts
31-Dec-20 01:13 -14.782092 173.258549 45 36924ft 482kts
31-Dec-20 01:14 -14.685239 173.354216 45 36924ft 482kts
31-Dec-20 01:15 -14.588454 173.449752 45 36925ft 482kts
31-Dec-20 01:16 -14.491494 173.545339 45 36923ft 482kts
31-Dec-20 01:17 -14.394686 173.640662 45 36925ft 482kts
31-Dec-20 01:18 -14.298159 173.736013 45 36924ft 482kts
31-Dec-20 01:19 -14.201237 173.831340 45 36924ft 482kts
31-Dec-20 01:20 -14.104140 173.926575 45 36924ft 482kts
31-Dec-20 01:21 -14.007508 174.021233 45 36925ft 482kts
31-Dec-20 01:22 -13.910042 174.116602 45 36923ft 482kts
31-Dec-20 01:23 -13.812797 174.211172 45 36925ft 482kts
31-Dec-20 01:24 -13.715643 174.305856 45 36923ft 482kts
31-Dec-20 01:25 -13.618970 174.400081 45 36925ft 482kts
31-Dec-20 01:26 -13.521056 174.495417 45 36925ft 482kts
31-Dec-20 01:27 -13.423884 174.589914 45 36924ft 482kts
31-Dec-20 01:28 -13.326751 174.684417 45 36924ft 482kts
31-Dec-20 01:30 -13.213453 174.794595 45 36925ft 482kts
31-Dec-20 01:30 -13.132565 174.872850 45 36924ft 482kts
31-Dec-20 01:31 -13.035113 174.966863 45 36925ft 479kts
31-Dec-20 01:32 -12.932438 175.053729 40 36924ft 479kts
31-Dec-20 01:33 -12.825427 175.136296 39 36924ft 483kts
31-Dec-20 01:34 -12.717874 175.219249 40 36924ft 487kts
31-Dec-20 01:35 -12.609939 175.302564 40 36924ft 487kts
31-Dec-20 01:36 -12.501736 175.386020 40 36903ft 487kts
31-Dec-20 01:37 -12.394451 175.468691 40 36877ft 487kts
31-Dec-20 01:38 -12.286220 175.552001 40 36872ft 487kts
31-Dec-20 01:39 -12.178131 175.635118 39 36872ft 487kts
31-Dec-20 01:40 -12.070093 175.718523 39 36872ft 487kts
31-Dec-20 01:41 -11.961995 175.801635 39 36872ft 487kts
31-Dec-20 01:42 -11.853469 175.884664 39 36871ft 487kts
31-Dec-20 01:43 -11.745051 175.967389 39 36872ft 488kts
31-Dec-20 01:44 -11.636678 176.050263 39 36872ft 488kts
31-Dec-20 01:45 -11.528458 176.132959 39 36871ft 487kts
31-Dec-20 01:46 -11.420338 176.215505 39 36872ft 488kts
31-Dec-20 01:47 -11.311771 176.298313 39 36872ft 487kts
31-Dec-20 01:48 -11.203558 176.380770 39 36872ft 487kts
31-Dec-20 01:49 -11.095055 176.463372 39 36871ft 487kts
31-Dec-20 01:50 -10.986926 176.545626 39 36872ft 486kts
31-Dec-20 01:51 -10.879011 176.627596 38 36871ft 484kts
31-Dec-20 01:52 -10.771370 176.709255 39 36872ft 483kts
31-Dec-20 01:53 -10.663882 176.790915 38 36872ft 483kts
31-Dec-20 01:54 -10.556374 176.872394 38 36872ft 483kts
31-Dec-20 01:55 -10.448814 176.953826 38 36871ft 484kts
31-Dec-20 01:56 -10.341078 177.035318 38 36871ft 485kts
31-Dec-20 01:57 -10.232961 177.117028 38 36871ft 485kts
31-Dec-20 01:58 -10.124790 177.198697 38 36871ft 486kts
31-Dec-20 01:59 -10.016373 177.280488 38 36872ft 486kts
31-Dec-20 02:00 -9.908241 177.362000 38 36872ft 486kts
31-Dec-20 02:01 -9.799844 177.443252 38 36872ft 486kts
31-Dec-20 02:02 -9.691498 177.524669 38 36872ft 485kts
31-Dec-20 02:03 -9.583172 177.606107 38 36872ft 486kts
31-Dec-20 02:04 -9.474970 177.687635 38 36872ft 486kts
31-Dec-20 02:05 -9.366569 177.769368 38 36871ft 488kts
31-Dec-20 02:06 -9.257830 177.850958 38 36872ft 488kts
31-Dec-20 02:07 -9.148838 177.932646 38 36871ft 488kts
31-Dec-20 02:08 -9.040077 178.014111 38 36871ft 488kts
31-Dec-20 02:09 -8.931354 178.095478 38 36872ft 487kts
31-Dec-20 02:10 -8.822361 178.176654 38 36871ft 487kts
31-Dec-20 02:11 -8.713581 178.257758 38 36872ft 487kts
31-Dec-20 02:12 -8.604681 178.339050 38 36872ft 487kts
31-Dec-20 02:13 -8.495742 178.420327 38 36872ft 487kts
31-Dec-20 02:14 -8.387174 178.501274 38 36872ft 487kts
31-Dec-20 02:15 -8.278333 178.582364 38 36872ft 487kts
31-Dec-20 02:16 -8.169487 178.663447 38 36872ft 487kts
31-Dec-20 02:17 -8.060813 178.744775 38 36872ft 487kts
31-Dec-20 02:18 -7.951771 178.825927 37 36871ft 487kts
31-Dec-20 02:19 -7.842643 178.906810 37 36871ft 489kts
31-Dec-20 02:20 -7.732884 178.988064 37 36871ft 490kts
31-Dec-20 02:21 -7.622919 179.069617 37 36871ft 491kts
31-Dec-20 02:22 -7.513091 179.151024 37 36872ft 491kts
31-Dec-20 02:23 -7.403224 179.232425 37 36872ft 491kts
31-Dec-20 02:24 -7.293544 179.313642 37 36872ft 491kts
31-Dec-20 02:25 -7.183323 179.395211 37 36872ft 491kts
31-Dec-20 02:26 -7.073431 179.476482 37 36872ft 491kts
31-Dec-20 02:27 -6.963725 179.557605 36 36872ft 492kts
31-Dec-20 02:28 -6.853455 179.638903 36 36872ft 491kts
31-Dec-20 02:29 -6.743566 179.720161 36 36872ft 491kts
31-Dec-20 02:30 -6.633966 179.801141 36 36872ft 491kts
31-Dec-20 02:31 -6.523940 179.882279 36 36872ft 491kts
31-Dec-20 02:32 -6.413639 179.963564 36 36872ft 491kts
31-Dec-20 02:33 -6.303977 -179.955702 36 36891ft 489kts
31-Dec-20 02:34 -6.194299 -179.874929 36 36917ft 489kts
31-Dec-20 02:35 -6.085056 -179.794545 36 36923ft 489kts
31-Dec-20 02:36 -5.975058 -179.713655 36 36925ft 489kts
31-Dec-20 02:37 -5.865400 -179.633168 36 36924ft 489kts
31-Dec-20 02:38 -5.755993 -179.553111 36 36925ft 489kts
31-Dec-20 02:40 -5.646353 -179.472480 36 36924ft 489kts
31-Dec-20 02:41 -5.536972 -179.391835 36 36924ft 489kts
31-Dec-20 02:42 -5.427495 -179.311524 36 36924ft 489kts
31-Dec-20 02:43 -5.317704 -179.231072 36 36924ft 489kts
31-Dec-20 02:44 -5.207929 -179.150721 36 36924ft 489kts
31-Dec-20 02:45 -5.098381 -179.070699 36 36924ft 489kts
31-Dec-20 02:46 -4.988624 -178.988673 40 36923ft 494kts
31-Dec-20 02:47 -4.884676 -178.898459 40 36924ft 496kts
31-Dec-20 02:48 -4.780553 -178.808846 40 36924ft 495kts
31-Dec-20 02:49 -4.676151 -178.718820 40 36925ft 495kts
31-Dec-20 02:50 -4.571886 -178.628886 40 36925ft 496kts
31-Dec-20 02:51 -4.467347 -178.538750 40 36925ft 496kts
31-Dec-20 02:52 -4.363364 -178.448794 40 36925ft 495kts
31-Dec-20 02:53 -4.259238 -178.358808 40 36924ft 495kts
31-Dec-20 02:54 -4.154881 -178.268906 40 36925ft 495kts
31-Dec-20 02:55 -4.050548 -178.179083 40 36924ft 495kts
31-Dec-20 02:56 -3.946219 -178.089297 40 36925ft 495kts
31-Dec-20 02:57 -3.842008 -177.999901 40 36925ft 495kts
31-Dec-20 02:57 -3.754873 -177.925202 40 36924ft 495kts
31-Dec-20 02:59 -3.633118 -177.820559 40 36925ft 495kts
31-Dec-20 02:59 -3.546209 -177.745861 40 36925ft 495kts
31-Dec-20 03:00 -3.442101 -177.656406 40 36925ft 495kts
31-Dec-20 03:01 -3.337662 -177.566688 40 36925ft 495kts
31-Dec-20 03:02 -3.233428 -177.477179 40 36925ft 494kts
31-Dec-20 03:03 -3.129115 -177.387622 40 36925ft 495kts
31-Dec-20 03:04 -3.025201 -177.298118 40 36924ft 495kts
31-Dec-20 03:05 -2.920927 -177.208344 39 36924ft 497kts
31-Dec-20 03:06 -2.815331 -177.118110 39 36924ft 499kts
31-Dec-20 03:07 -2.710160 -177.028085 39 36924ft 500kts
31-Dec-20 03:08 -2.604557 -176.937554 39 36925ft 500kts
31-Dec-20 03:09 -2.499364 -176.847384 39 36925ft 500kts
31-Dec-20 03:10 -2.393458 -176.756618 39 36925ft 501kts
31-Dec-20 03:11 -2.287870 -176.666143 39 36925ft 501kts
31-Dec-20 03:12 -2.182603 -176.575963 39 36925ft 500kts
31-Dec-20 03:13 -2.076946 -176.485464 39 36925ft 501kts
31-Dec-20 03:14 -1.971257 -176.394953 39 36925ft 501kts
31-Dec-20 03:15 -1.865352 -176.304129 39 36924ft 501kts
31-Dec-20 03:16 -1.759509 -176.213558 39 36925ft 501kts
31-Dec-20 03:17 -1.653904 -176.123181 39 36925ft 501kts
31-Dec-20 03:18 -1.548269 -176.032777 39 36925ft 501kts
31-Dec-20 03:19 -1.442336 -175.942130 39 36925ft 501kts
31-Dec-20 03:20 -1.336859 -175.851885 39 36925ft 501kts
31-Dec-20 03:21 -1.230957 -175.761288 39 36924ft 501kts
31-Dec-20 03:22 -1.125127 -175.670764 39 36925ft 501kts
31-Dec-20 03:23 -1.019435 -175.580301 39 36925ft 501kts
31-Dec-20 03:24 -0.913622 -175.489818 38 36924ft 500kts
31-Dec-20 03:25 -0.807963 -175.399915 38 36925ft 500kts
31-Dec-20 03:26 -0.702532 -175.309658 38 36924ft 500kts
31-Dec-20 03:27 -0.597080 -175.219129 38 36924ft 500kts
31-Dec-20 03:28 -0.491863 -175.129135 38 36925ft 499kts
31-Dec-20 03:29 -0.386681 -175.039206 38 36925ft 498kts
31-Dec-20 03:30 -0.281484 -174.949276 38 36925ft 497kts
31-Dec-20 03:31 -0.176725 -174.859728 38 36925ft 497kts
31-Dec-20 03:32 -0.071438 -174.769724 38 36925ft 497kts
31-Dec-20 03:33 0.033436 -174.680067 38 36925ft 497kts
31-Dec-20 03:34 0.138104 -174.590736 38 36925ft 497kts
31-Dec-20 03:35 0.243262 -174.501174 38 36924ft 497kts
31-Dec-20 03:36 0.348002 -174.411672 38 36925ft 497kts
31-Dec-20 03:37 0.452795 -174.321939 38 36924ft 497kts
31-Dec-20 03:38 0.557526 -174.231965 38 36925ft 497kts
31-Dec-20 03:39 0.662386 -174.142265 38 36925ft 497kts
31-Dec-20 03:40 0.767305 -174.052558 38 36925ft 497kts
31-Dec-20 03:41 0.872189 -173.962883 38 36925ft 497kts
31-Dec-20 03:42 0.977183 -173.873099 38 36924ft 497kts
31-Dec-20 03:43 1.081833 -173.783578 38 36924ft 497kts
31-Dec-20 03:44 1.187115 -173.693921 37 36925ft 498kts
31-Dec-20 03:45 1.292404 -173.604006 37 36924ft 498kts
31-Dec-20 03:46 1.397341 -173.514250 37 36924ft 497kts
31-Dec-20 03:47 1.502276 -173.424488 38 36925ft 497kts
31-Dec-20 03:48 1.607190 -173.334681 38 36923ft 498kts
31-Dec-20 03:49 1.712310 -173.244293 37 36925ft 497kts
31-Dec-20 03:50 1.817080 -173.154689 37 36925ft 497kts
31-Dec-20 03:51 1.922099 -173.065028 37 36925ft 497kts
31-Dec-20 03:52 2.027093 -172.975064 38 36921ft 498kts
31-Dec-20 03:53 2.131622 -172.884479 37 36903ft 498kts
31-Dec-20 03:54 2.236564 -172.794348 37 36879ft 499kts
31-Dec-20 03:55 2.341523 -172.703949 37 36872ft 499kts
31-Dec-20 03:56 2.446432 -172.613537 37 36872ft 499kts
31-Dec-20 03:57 2.551520 -172.522929 37 36871ft 499kts
31-Dec-20 03:58 2.656537 -172.432386 37 36872ft 500kts
31-Dec-20 03:59 2.761535 -172.341810 37 36868ft 500kts
31-Dec-20 04:00 2.866446 -172.250761 37 36872ft 500kts
31-Dec-20 04:01 2.971607 -172.159906 37 36871ft 502kts
31-Dec-20 04:02 3.077740 -172.068296 37 36871ft 505kts
31-Dec-20 04:03 3.184011 -171.976908 37 36872ft 505kts
31-Dec-20 04:04 3.290125 -171.885422 37 36872ft 505kts
31-Dec-20 04:05 3.396770 -171.793304 37 36872ft 505kts
31-Dec-20 04:06 3.503252 -171.701275 37 36872ft 508kts
31-Dec-20 04:07 3.610060 -171.608974 37 36872ft 508kts
31-Dec-20 04:08 3.716890 -171.516601 37 36872ft 508kts
31-Dec-20 04:09 3.823603 -171.424294 37 36871ft 508kts
31-Dec-20 04:10 3.930442 -171.331791 37 36870ft 509kts
31-Dec-20 04:11 4.037237 -171.238834 37 36872ft 508kts
31-Dec-20 04:12 4.143825 -171.146639 36 36871ft 509kts
31-Dec-20 04:13 4.251077 -171.054047 37 36872ft 509kts
31-Dec-20 04:14 4.358050 -170.961391 37 36871ft 510kts
31-Dec-20 04:15 4.465370 -170.868363 37 36871ft 511kts
31-Dec-20 04:16 4.572821 -170.775175 37 36872ft 512kts
31-Dec-20 04:17 4.680686 -170.681593 37 36872ft 512kts
31-Dec-20 04:18 4.787997 -170.588456 37 36872ft 512kts
31-Dec-20 04:19 4.895201 -170.495371 37 36872ft 512kts
31-Dec-20 04:20 5.002584 -170.402084 37 36872ft 511kts
31-Dec-20 04:21 5.109549 -170.308881 37 36871ft 508kts
31-Dec-20 04:22 5.216409 -170.216021 37 36872ft 508kts
31-Dec-20 04:23 5.323209 -170.123160 37 36872ft 508kts
31-Dec-20 04:24 5.429613 -170.030568 37 36872ft 508kts
31-Dec-20 04:25 5.535919 -169.938004 37 36872ft 508kts
31-Dec-20 04:26 5.642716 -169.844967 37 36872ft 508kts
31-Dec-20 04:27 5.749138 -169.752212 37 36872ft 508kts
31-Dec-20 04:28 5.855652 -169.659328 37 36871ft 508kts
31-Dec-20 04:29 5.962000 -169.566536 37 36872ft 508kts
31-Dec-20 04:30 6.068516 -169.473550 37 36872ft 508kts
31-Dec-20 04:32 6.175292 -169.380617 37 36872ft 508kts
31-Dec-20 04:33 6.281329 -169.287740 37 36871ft 508kts
31-Dec-20 04:34 6.387767 -169.194426 37 36872ft 508kts
31-Dec-20 04:35 6.494357 -169.101152 37 36871ft 509kts
31-Dec-20 04:36 6.601136 -169.007678 37 36871ft 511kts
31-Dec-20 04:37 6.708369 -168.913751 37 36872ft 512kts
31-Dec-20 04:38 6.815744 -168.819639 37 36872ft 512kts
31-Dec-20 04:39 6.922948 -168.725659 37 36872ft 511kts
31-Dec-20 04:40 7.029055 -168.632606 38 36873ft 504kts
31-Dec-20 04:41 7.134430 -168.540109 38 36871ft 502kts
31-Dec-20 04:42 7.239662 -168.447989 39 36872ft 502kts
31-Dec-20 04:43 7.344534 -168.355822 39 36872ft 502kts
31-Dec-20 04:44 7.449370 -168.263076 39 36871ft 502kts
31-Dec-20 04:45 7.554099 -168.170734 39 36872ft 502kts
31-Dec-20 04:46 7.659243 -168.078097 39 36872ft 502kts
31-Dec-20 04:47 7.764185 -167.985583 39 36872ft 502kts
31-Dec-20 04:47 7.851472 -167.908583 39 36872ft 502kts
31-Dec-20 04:49 7.973854 -167.800548 39 36872ft 502kts
31-Dec-20 04:50 8.078588 -167.708020 39 36872ft 501kts
31-Dec-20 04:50 8.166107 -167.630952 39 36872ft 502kts
31-Dec-20 04:51 8.270903 -167.538469 39 36872ft 502kts
31-Dec-20 04:52 8.376011 -167.445434 39 36872ft 502kts
31-Dec-20 04:53 8.480610 -167.352765 39 36872ft 502kts
31-Dec-20 04:54 8.585115 -167.259604 39 36871ft 502kts
31-Dec-20 04:55 8.690086 -167.166355 39 36872ft 502kts
31-Dec-20 04:56 8.794901 -167.073282 39 36872ft 502kts
31-Dec-20 04:57 8.899606 -166.980245 39 36871ft 503kts
31-Dec-20 04:58 9.003101 -166.888206 39 36871ft 504kts
31-Dec-20 04:59 9.108167 -166.794692 39 36870ft 504kts
31-Dec-20 05:00 9.213481 -166.701335 39 36872ft 504kts
31-Dec-20 05:01 9.318437 -166.607845 39 36872ft 504kts
31-Dec-20 05:02 9.422295 -166.515193 39 36872ft 504kts
31-Dec-20 05:03 9.527435 -166.421317 39 36872ft 504kts
31-Dec-20 05:04 9.632414 -166.327423 39 36870ft 504kts
31-Dec-20 05:05 9.737181 -166.233332 39 36872ft 504kts
31-Dec-20 05:06 9.841893 -166.139701 39 36865ft 504kts
31-Dec-20 05:07 9.947092 -166.045777 39 36846ft 504kts
31-Dec-20 05:08 10.054574 -165.955041 35 36843ft 503kts
31-Dec-20 05:09 10.164934 -165.868939 35 36843ft 503kts
31-Dec-20 05:10 10.275809 -165.782394 35 36843ft 503kts
31-Dec-20 05:11 10.386226 -165.695912 35 36843ft 503kts
31-Dec-20 05:12 10.497001 -165.609051 35 36843ft 503kts
31-Dec-20 05:13 10.607503 -165.522318 35 36843ft 503kts
31-Dec-20 05:14 10.717854 -165.435622 35 36843ft 503kts
31-Dec-20 05:15 10.828334 -165.348743 35 36843ft 503kts
31-Dec-20 05:16 10.938152 -165.261728 35 36844ft 501kts
31-Dec-20 05:17 11.047570 -165.175339 33 36844ft 495kts
31-Dec-20 05:18 11.156346 -165.089850 33 36847ft 494kts
31-Dec-20 05:19 11.264890 -165.004398 33 36868ft 493kts
31-Dec-20 05:20 11.372763 -164.919197 33 37021ft 491kts
31-Dec-20 05:21 11.479930 -164.834441 33 37128ft 488kts
31-Dec-20 05:22 11.587016 -164.749682 33 37154ft 488kts
31-Dec-20 05:23 11.694116 -164.664812 33 37160ft 488kts
31-Dec-20 05:24 11.800833 -164.580152 33 37161ft 488kts
31-Dec-20 05:25 11.907828 -164.495190 33 37161ft 488kts
31-Dec-20 05:26 12.014700 -164.410226 33 37161ft 488kts
31-Dec-20 05:27 12.121666 -164.325063 33 37160ft 488kts
31-Dec-20 05:28 12.228457 -164.239922 33 37160ft 488kts
31-Dec-20 05:29 12.335173 -164.154834 33 37161ft 488kts
31-Dec-20 05:30 12.441941 -164.069616 33 37160ft 488kts
31-Dec-20 05:31 12.548681 -163.984319 33 37161ft 488kts
31-Dec-20 05:32 12.655587 -163.898801 33 37160ft 487kts
31-Dec-20 05:33 12.761981 -163.813607 33 37160ft 488kts
31-Dec-20 05:34 12.868690 -163.728056 33 37160ft 488kts
31-Dec-20 05:35 12.975702 -163.642167 33 37161ft 488kts
31-Dec-20 05:36 13.081817 -163.556931 34 37161ft 486kts
31-Dec-20 05:37 13.188305 -163.471590 34 37161ft 485kts
31-Dec-20 05:38 13.294023 -163.386565 34 37161ft 485kts
31-Dec-20 05:39 13.399805 -163.300964 34 37160ft 485kts
31-Dec-20 05:40 13.505476 -163.215376 34 37161ft 485kts
31-Dec-20 05:41 13.611084 -163.129975 34 37161ft 483kts
31-Dec-20 05:42 13.716061 -163.045033 33 37161ft 479kts
31-Dec-20 05:43 13.820357 -162.960562 33 37161ft 475kts
31-Dec-20 05:44 13.923698 -162.876810 33 37160ft 475kts
31-Dec-20 05:45 14.027367 -162.792665 33 37161ft 475kts
31-Dec-20 05:46 14.131066 -162.708477 33 37161ft 474kts
31-Dec-20 05:47 14.234615 -162.624528 33 37161ft 475kts
31-Dec-20 05:48 14.337900 -162.540418 33 37161ft 475kts
31-Dec-20 05:49 14.441499 -162.455923 33 37161ft 475kts
31-Dec-20 05:50 14.544743 -162.371615 33 37160ft 475kts
31-Dec-20 05:51 14.647894 -162.286899 33 37160ft 475kts
31-Dec-20 05:52 14.751136 -162.202289 33 37160ft 475kts
31-Dec-20 05:53 14.854543 -162.117699 33 37161ft 475kts
31-Dec-20 05:54 14.957761 -162.033266 33 37160ft 474kts
31-Dec-20 05:55 15.066671 -161.958433 25 37160ft 468kts
31-Dec-20 05:56 15.179489 -161.891978 25 37161ft 468kts
31-Dec-20 05:57 15.292315 -161.825299 25 37160ft 468kts
31-Dec-20 05:58 15.404992 -161.758481 25 37160ft 468kts
31-Dec-20 05:59 15.517863 -161.691445 25 37162ft 468kts
31-Dec-20 06:00 15.630650 -161.624369 25 37162ft 468kts
31-Dec-20 06:01 15.743142 -161.557384 25 37162ft 468kts
31-Dec-20 06:02 15.855915 -161.490144 25 37162ft 468kts
31-Dec-20 06:03 15.968336 -161.423025 25 37167ft 468kts
31-Dec-20 06:04 16.081116 -161.355605 25 37172ft 468kts
31-Dec-20 06:05 16.193368 -161.288158 25 37168ft 468kts
31-Dec-20 06:06 16.306042 -161.220562 25 37165ft 468kts
31-Dec-20 06:07 16.418705 -161.152940 25 37160ft 468kts
31-Dec-20 06:08 16.531207 -161.085328 25 37159ft 468kts
31-Dec-20 06:09 16.643833 -161.017553 25 37157ft 468kts
31-Dec-20 06:10 16.756252 -160.949811 25 37155ft 467kts
31-Dec-20 06:11 16.868574 -160.882030 25 37156ft 467kts
31-Dec-20 06:12 16.980635 -160.814317 26 37159ft 466kts
31-Dec-20 06:13 17.092927 -160.746423 26 37160ft 468kts
31-Dec-20 06:14 17.205256 -160.678567 27 37161ft 468kts
31-Dec-20 06:15 17.317763 -160.610340 27 37161ft 468kts
31-Dec-20 06:16 17.429985 -160.542144 27 37161ft 468kts
31-Dec-20 06:17 17.542423 -160.473712 27 37160ft 468kts
31-Dec-20 06:18 17.654803 -160.405214 27 37160ft 468kts
31-Dec-20 06:19 17.767094 -160.336606 27 37160ft 468kts
31-Dec-20 06:20 17.879261 -160.267553 27 37160ft 468kts
31-Dec-20 06:21 17.991341 -160.198854 27 37160ft 468kts
31-Dec-20 06:22 18.103802 -160.129895 27 37161ft 468kts
31-Dec-20 06:24 18.215974 -160.061296 27 37160ft 468kts
31-Dec-20 06:25 18.328248 -159.992321 27 37160ft 468kts
31-Dec-20 06:26 18.440539 -159.923172 27 37160ft 468kts
31-Dec-20 06:27 18.552706 -159.853987 27 37160ft 468kts
31-Dec-20 06:28 18.665126 -159.784535 27 37160ft 468kts
31-Dec-20 06:29 18.777291 -159.715133 27 37160ft 468kts
31-Dec-20 06:30 18.889249 -159.645752 27 37160ft 468kts
31-Dec-20 06:31 19.001690 -159.575981 27 37160ft 472kts
31-Dec-20 06:32 19.115215 -159.505414 27 37161ft 475kts
31-Dec-20 06:33 19.228605 -159.435092 27 37160ft 474kts
31-Dec-20 06:34 19.342063 -159.364383 27 37161ft 474kts
31-Dec-20 06:35 19.455709 -159.292959 28 37160ft 475kts
31-Dec-20 06:36 19.568804 -159.221998 28 37160ft 475kts
31-Dec-20 06:37 19.682417 -159.150770 28 37160ft 474kts
31-Dec-20 06:38 19.795710 -159.079643 27 37161ft 474kts
31-Dec-20 06:39 19.908332 -159.008817 27 37161ft 471kts
31-Dec-20 06:40 20.020717 -158.938031 27 37161ft 469kts
31-Dec-20 06:41 20.132900 -158.867321 27 37161ft 466kts
31-Dec-20 06:41 20.225767 -158.808868 28 37160ft 466kts
31-Dec-20 06:42 20.337081 -158.738474 28 37160ft 466kts
31-Dec-20 06:44 20.466857 -158.656192 28 37160ft 466kts
31-Dec-20 06:45 20.577869 -158.585675 28 37160ft 466kts
31-Dec-20 06:45 20.670378 -158.526816 28 37160ft 466kts
31-Dec-20 06:46 20.781408 -158.456061 28 37161ft 466kts
31-Dec-20 06:47 20.892681 -158.385026 28 37160ft 466kts
31-Dec-20 06:48 21.003651 -158.313792 28 37159ft 467kts
31-Dec-20 06:49 21.115452 -158.241876 28 37160ft 472kts
31-Dec-20 06:50 21.228109 -158.169823 28 37160ft 472kts
31-Dec-20 06:51 21.340130 -158.097856 28 37161ft 472kts
31-Dec-20 06:52 21.453320 -158.024961 28 37160ft 473kts
31-Dec-20 06:53 21.565610 -157.952509 28 37163ft 473kts
31-Dec-20 06:54 21.678270 -157.879684 28 37168ft 473kts
31-Dec-20 06:55 21.790784 -157.806819 28 37161ft 473kts
31-Dec-20 06:56 21.901392 -157.735058 28 37151ft 473kts
31-Dec-20 06:57 22.015420 -157.660942 28 37140ft 473kts
31-Dec-20 06:58 22.127694 -157.587884 28 37136ft 473kts
31-Dec-20 06:59 22.240322 -157.514679 28 37136ft 473kts
31-Dec-20 07:00 22.352994 -157.441067 28 37136ft 473kts
31-Dec-20 07:01 22.464532 -157.368019 28 37136ft 473kts
31-Dec-20 07:02 22.577201 -157.293677 28 37136ft 473kts
31-Dec-20 07:03 22.689288 -157.219793 28 37136ft 473kts
31-Dec-20 07:04 22.801558 -157.145839 28 37136ft 471kts
31-Dec-20 07:05 22.912529 -157.072608 29 37135ft 470kts
31-Dec-20 07:06 23.025419 -156.997968 29 37134ft 478kts
31-Dec-20 07:07 23.139113 -156.922606 28 37133ft 475kts
31-Dec-20 07:08 23.252033 -156.847976 28 37126ft 476kts
31-Dec-20 07:09 23.364786 -156.773021 28 37125ft 476kts
31-Dec-20 07:10 23.477133 -156.698146 28 37125ft 477kts
31-Dec-20 07:11 23.590277 -156.622597 28 37125ft 477kts
31-Dec-20 07:12 23.703404 -156.546919 28 37125ft 476kts
31-Dec-20 07:13 23.816006 -156.471478 28 37125ft 476kts
31-Dec-20 07:14 23.928696 -156.395936 28 37128ft 476kts
31-Dec-20 07:15 24.040183 -156.317525 34 37126ft 479kts
31-Dec-20 07:16 24.140565 -156.222042 39 37126ft 480kts
31-Dec-20 07:17 24.239900 -156.123726 39 37130ft 480kts
31-Dec-20 07:18 24.338699 -156.025826 39 37140ft 480kts
31-Dec-20 07:19 24.437485 -155.927734 39 37149ft 480kts
31-Dec-20 07:20 24.536594 -155.829100 39 37152ft 480kts
31-Dec-20 07:21 24.634950 -155.731000 39 37152ft 480kts
31-Dec-20 07:22 24.734006 -155.631980 39 37152ft 480kts
31-Dec-20 07:23 24.832407 -155.533391 39 37152ft 480kts
31-Dec-20 07:24 24.930812 -155.434577 39 37152ft 480kts
31-Dec-20 07:25 25.029573 -155.335105 39 37149ft 483kts
31-Dec-20 07:26 25.128457 -155.234955 38 37151ft 487kts
31-Dec-20 07:27 25.228809 -155.133856 38 37152ft 489kts
31-Dec-20 07:28 25.328943 -155.032435 39 37152ft 489kts
31-Dec-20 07:29 25.428812 -154.931000 39 37152ft 487kts
31-Dec-20 07:30 25.528270 -154.829736 39 37152ft 486kts
31-Dec-20 07:31 25.627765 -154.728193 39 37152ft 486kts
31-Dec-20 07:32 25.726756 -154.626915 39 37152ft 486kts
31-Dec-20 07:33 25.825297 -154.525866 39 37152ft 486kts
31-Dec-20 07:34 25.924398 -154.424000 39 37152ft 486kts
31-Dec-20 07:35 26.023457 -154.321817 39 37151ft 486kts
31-Dec-20 07:36 26.123087 -154.218534 39 37152ft 486kts
31-Dec-20 07:37 26.222448 -154.116038 39 37152ft 486kts
31-Dec-20 07:38 26.321082 -154.013728 39 37151ft 486kts
31-Dec-20 07:39 26.419974 -153.910851 39 37152ft 486kts
31-Dec-20 07:40 26.519251 -153.807304 39 37152ft 486kts
31-Dec-20 07:41 26.617713 -153.704349 39 37152ft 486kts
31-Dec-20 07:42 26.716360 -153.600955 39 37152ft 486kts
31-Dec-20 07:43 26.815093 -153.497209 39 37152ft 486kts
31-Dec-20 07:44 26.913477 -153.393578 39 37151ft 487kts
31-Dec-20 07:45 27.012546 -153.288696 41 37150ft 493kts
31-Dec-20 07:46 27.112300 -153.182768 41 37151ft 494kts
31-Dec-20 07:47 27.211651 -153.077755 41 37152ft 494kts
31-Dec-20 07:48 27.311734 -152.971330 41 37152ft 493kts
31-Dec-20 07:49 27.410857 -152.865565 41 37152ft 492kts
31-Dec-20 07:50 27.509967 -152.759518 41 37151ft 492kts
31-Dec-20 07:51 27.609234 -152.653039 41 37152ft 492kts
31-Dec-20 07:52 27.707891 -152.546930 41 37152ft 492kts
31-Dec-20 07:53 27.805948 -152.441205 41 37152ft 492kts
31-Dec-20 07:54 27.904897 -152.334180 41 37150ft 492kts
31-Dec-20 07:55 28.003249 -152.227058 41 37152ft 492kts
31-Dec-20 07:56 28.101620 -152.120056 41 37152ft 492kts
31-Dec-20 07:57 28.200203 -152.013137 41 37152ft 491kts
31-Dec-20 07:58 28.298935 -151.905358 41 37152ft 491kts
31-Dec-20 07:59 28.396978 -151.797946 41 37152ft 491kts
31-Dec-20 08:00 28.495378 -151.689832 41 37152ft 491kts
31-Dec-20 08:01 28.593269 -151.581976 41 37152ft 491kts
31-Dec-20 08:02 28.691004 -151.474013 41 37152ft 491kts
31-Dec-20 08:03 28.789003 -151.365455 41 37151ft 491kts
31-Dec-20 08:04 28.886553 -151.256640 42 37152ft 490kts
31-Dec-20 08:05 28.983983 -151.147949 42 37152ft 490kts
31-Dec-20 08:06 29.081947 -151.038571 42 37150ft 494kts
31-Dec-20 08:07 29.180913 -150.928273 43 37151ft 496kts
31-Dec-20 08:08 29.275576 -150.821967 42 37147ft 495kts
31-Dec-20 08:09 29.377087 -150.707670 42 37145ft 494kts
31-Dec-20 08:10 29.475227 -150.596817 42 37145ft 494kts
31-Dec-20 08:11 29.573030 -150.486022 42 37145ft 495kts
31-Dec-20 08:12 29.670808 -150.374946 42 37145ft 494kts
31-Dec-20 08:13 29.767959 -150.263899 43 37145ft 494kts
31-Dec-20 08:14 29.865868 -150.152030 43 37145ft 494kts
31-Dec-20 08:16 29.963494 -150.040531 43 37145ft 495kts
31-Dec-20 08:17 30.062078 -149.929937 41 37145ft 494kts
31-Dec-20 08:18 30.161879 -149.821412 41 37145ft 494kts
31-Dec-20 08:19 30.261656 -149.712433 41 37145ft 493kts
31-Dec-20 08:20 30.361191 -149.603127 41 37145ft 493kts
31-Dec-20 08:21 30.460655 -149.493549 41 37145ft 493kts
31-Dec-20 08:22 30.559865 -149.383925 41 37145ft 493kts
31-Dec-20 08:23 30.658619 -149.274101 42 37144ft 493kts
31-Dec-20 08:24 30.757824 -149.163597 42 37145ft 494kts
31-Dec-20 08:25 30.856791 -149.053235 42 37145ft 493kts
31-Dec-20 08:26 30.955923 -148.942357 41 37142ft 497kts
31-Dec-20 08:27 31.056080 -148.830103 42 37144ft 503kts
31-Dec-20 08:28 31.156841 -148.717054 42 37144ft 501kts
31-Dec-20 08:29 31.257185 -148.604090 42 37145ft 501kts
31-Dec-20 08:30 31.357090 -148.491000 42 37145ft 502kts
31-Dec-20 08:31 31.457610 -148.376848 42 37144ft 502kts
31-Dec-20 08:32 31.557142 -148.263009 43 37146ft 501kts
31-Dec-20 08:32 31.640377 -148.167719 42 37145ft 502kts
31-Dec-20 08:34 31.756162 -148.034997 42 37143ft 501kts
31-Dec-20 08:34 31.839909 -147.938682 42 37144ft 501kts
31-Dec-20 08:36 31.955898 -147.804909 42 37143ft 501kts
31-Dec-20 08:36 32.038632 -147.709144 42 37143ft 501kts
31-Dec-20 08:37 32.138317 -147.593674 42 37144ft 501kts
31-Dec-20 08:38 32.237670 -147.478423 43 37144ft 500kts
31-Dec-20 08:39 32.336527 -147.362975 43 37144ft 501kts
31-Dec-20 08:40 32.435291 -147.246747 43 37144ft 501kts
31-Dec-20 08:41 32.534133 -147.130371 43 37144ft 500kts
31-Dec-20 08:42 32.632555 -147.014309 43 37146ft 495kts
31-Dec-20 08:43 32.729514 -146.899545 44 37147ft 491kts
31-Dec-20 08:44 32.825503 -146.785509 44 37144ft 490kts
31-Dec-20 08:45 32.922028 -146.670503 44 37145ft 490kts
31-Dec-20 08:46 33.017774 -146.556064 44 37142ft 496kts
31-Dec-20 08:47 33.116815 -146.437441 44 37138ft 508kts
31-Dec-20 08:48 33.216183 -146.318342 45 37144ft 508kts
31-Dec-20 08:49 33.315869 -146.197578 45 37145ft 508kts
31-Dec-20 08:50 33.414951 -146.077489 45 37146ft 508kts
31-Dec-20 08:51 33.514418 -145.956568 45 37146ft 508kts
31-Dec-20 08:52 33.612921 -145.836381 45 37144ft 507kts
31-Dec-20 08:53 33.712014 -145.715080 45 37144ft 507kts
31-Dec-20 08:54 33.810751 -145.593779 45 37146ft 508kts
31-Dec-20 08:55 33.909454 -145.472069 45 37144ft 508kts
31-Dec-20 08:56 34.005286 -145.353516 45 37145ft 508kts
31-Dec-20 08:57 34.104946 -145.229276 46 37142ft 507kts
31-Dec-20 08:58 34.203210 -145.107396 46 37147ft 503kts
31-Dec-20 08:59 34.300067 -144.986368 46 37147ft 499kts
31-Dec-20 09:00 34.395882 -144.866133 46 37145ft 496kts
31-Dec-20 09:01 34.490409 -144.747096 46 37145ft 496kts
31-Dec-20 09:02 34.587149 -144.624860 46 37145ft 496kts
31-Dec-20 09:03 34.682570 -144.503834 46 37145ft 496kts
31-Dec-20 09:04 34.777857 -144.382561 46 37144ft 496kts
31-Dec-20 09:05 34.872993 -144.260662 47 37145ft 496kts
31-Dec-20 09:06 34.968365 -144.138291 47 37141ft 505kts
31-Dec-20 09:07 35.066155 -144.012559 48 37142ft 513kts
31-Dec-20 09:08 35.164399 -143.886044 48 37144ft 513kts
31-Dec-20 09:09 35.262251 -143.759498 48 37146ft 512kts
31-Dec-20 09:10 35.359967 -143.632353 48 37146ft 512kts
31-Dec-20 09:11 35.456391 -143.506400 48 37144ft 513kts
31-Dec-20 09:12 35.554502 -143.377783 48 37146ft 512kts
31-Dec-20 09:13 35.651588 -143.249583 49 37199ft 512kts
31-Dec-20 09:15 35.764712 -143.099950 49 37293ft 512kts
31-Dec-20 09:15 35.845124 -142.993240 49 37313ft 510kts
31-Dec-20 09:16 35.941062 -142.865511 49 37318ft 506kts
31-Dec-20 09:17 36.036557 -142.737889 49 37316ft 503kts
31-Dec-20 09:18 36.131115 -142.611226 48 37315ft 504kts
31-Dec-20 09:19 36.226586 -142.483248 49 37315ft 504kts
31-Dec-20 09:20 36.318758 -142.358690 49 37315ft 504kts
31-Dec-20 09:21 36.415535 -142.226870 49 37316ft 504kts
31-Dec-20 09:22 36.509548 -142.098686 49 37317ft 503kts
31-Dec-20 09:23 36.603726 -141.969880 49 37316ft 504kts
31-Dec-20 09:24 36.697915 -141.840535 49 37315ft 503kts
31-Dec-20 09:25 36.791784 -141.711137 49 37316ft 503kts
31-Dec-20 09:26 36.885673 -141.581198 49 37317ft 504kts
31-Dec-20 09:27 36.979158 -141.451323 49 37314ft 504kts
31-Dec-20 09:28 37.071915 -141.321905 50 37313ft 511kts
31-Dec-20 09:29 37.168816 -141.186292 50 37315ft 516kts
31-Dec-20 09:30 37.263978 -141.052652 50 37318ft 513kts
31-Dec-20 09:31 37.358935 -140.918463 49 37318ft 510kts
31-Dec-20 09:32 37.452775 -140.785506 49 37420ft 512kts
31-Dec-20 09:33 37.547388 -140.650806 49 38288ft 519kts
31-Dec-20 09:34 37.644450 -140.512029 49 39075ft 526kts
31-Dec-20 09:35 37.742418 -140.371356 49 39314ft 529kts
31-Dec-20 09:36 37.839541 -140.231017 50 39315ft 529kts
31-Dec-20 09:37 37.936536 -140.090807 49 39315ft 529kts
31-Dec-20 09:38 38.030977 -139.953963 49 39315ft 528kts
31-Dec-20 09:39 38.131445 -139.809987 49 39314ft 529kts
31-Dec-20 09:40 38.229211 -139.670184 49 39501ft 532kts
31-Dec-20 09:41 38.328262 -139.527315 49 40216ft 537kts
31-Dec-20 09:42 38.427980 -139.382792 49 41072ft 537kts
31-Dec-20 09:43 38.526545 -139.238884 50 41313ft 538kts
31-Dec-20 09:44 38.624608 -139.095157 49 41315ft 534kts
31-Dec-20 09:45 38.722245 -138.951673 48 41315ft 526kts
31-Dec-20 09:46 38.817671 -138.811003 48 41314ft 525kts
31-Dec-20 09:47 38.914591 -138.667368 48 41313ft 526kts
31-Dec-20 09:48 39.009696 -138.525760 48 41313ft 533kts
31-Dec-20 09:49 39.108223 -138.378401 48 41311ft 536kts
31-Dec-20 09:50 39.205616 -138.232399 48 41314ft 536kts
31-Dec-20 09:51 39.302768 -138.085660 48 41314ft 536kts
31-Dec-20 09:52 39.399620 -137.938750 48 41314ft 536kts
31-Dec-20 09:53 39.496197 -137.791568 48 41314ft 536kts
31-Dec-20 09:54 39.593238 -137.642994 48 41314ft 536kts
31-Dec-20 09:55 39.689045 -137.495589 48 41314ft 536kts
31-Dec-20 09:56 39.785777 -137.346061 49 41313ft 536kts
31-Dec-20 09:57 39.880837 -137.197891 49 41314ft 536kts
31-Dec-20 09:58 39.969883 -137.058840 49 41314ft 536kts
31-Dec-20 09:59 40.065156 -136.909335 48 41315ft 533kts
31-Dec-20 10:00 40.160277 -136.760069 47 41314ft 527kts
31-Dec-20 10:02 40.254126 -136.612085 47 41314ft 527kts
31-Dec-20 10:03 40.347637 -136.463415 47 41314ft 527kts
31-Dec-20 10:04 40.440869 -136.314355 48 41312ft 527kts
31-Dec-20 10:05 40.533647 -136.164863 48 41314ft 527kts
31-Dec-20 10:06 40.626838 -136.014442 48 41314ft 527kts
31-Dec-20 10:07 40.719549 -135.864121 48 41314ft 527kts
31-Dec-20 10:08 40.812036 -135.713430 48 41314ft 527kts
31-Dec-20 10:09 40.904250 -135.562442 48 41314ft 527kts
31-Dec-20 10:10 40.996672 -135.410695 50 41321ft 535kts
31-Dec-20 10:11 41.090136 -135.255477 51 41331ft 542kts
31-Dec-20 10:12 41.185298 -135.097757 50 41334ft 545kts
31-Dec-20 10:13 41.279031 -134.941137 49 41334ft 538kts
31-Dec-20 10:14 41.372258 -134.784682 48 41333ft 533kts
31-Dec-20 10:15 41.464330 -134.629382 48 41333ft 533kts
31-Dec-20 10:16 41.555909 -134.474014 48 41333ft 533kts
31-Dec-20 10:17 41.648330 -134.316331 49 41331ft 533kts
31-Dec-20 10:18 41.739312 -134.159830 49 41333ft 533kts
31-Dec-20 10:18 41.815501 -134.028542 49 41333ft 533kts
31-Dec-20 10:20 41.921782 -133.844527 49 41333ft 533kts
31-Dec-20 10:20 41.997530 -133.712691 49 41333ft 533kts
31-Dec-20 10:21 42.087398 -133.555523 49 41333ft 533kts
31-Dec-20 10:22 42.179293 -133.394792 49 41333ft 533kts
31-Dec-20 10:23 42.269808 -133.234628 50 41333ft 533kts
31-Dec-20 10:24 42.358772 -133.076129 49 41334ft 528kts
31-Dec-20 10:25 42.446878 -132.918695 48 41334ft 519kts
31-Dec-20 10:26 42.533488 -132.763391 48 41333ft 519kts
31-Dec-20 10:27 42.620474 -132.606413 48 41333ft 519kts
31-Dec-20 10:28 42.707312 -132.448848 48 41333ft 519kts
31-Dec-20 10:29 42.793749 -132.290994 49 41332ft 520kts
31-Dec-20 10:30 42.879853 -132.132651 49 41333ft 520kts
31-Dec-20 10:31 42.965288 -131.975108 49 41330ft 521kts
31-Dec-20 10:32 43.052089 -131.814232 49 41321ft 523kts
31-Dec-20 10:33 43.138067 -131.654438 49 41316ft 523kts
31-Dec-20 10:34 43.224102 -131.493866 49 41315ft 523kts
31-Dec-20 10:35 43.309612 -131.332811 50 41312ft 523kts
31-Dec-20 10:36 43.394633 -131.171198 49 41316ft 523kts
31-Dec-20 10:37 43.480525 -131.007521 49 41317ft 523kts
31-Dec-20 10:38 43.564537 -130.846418 48 41317ft 511kts
31-Dec-20 10:39 43.646729 -130.688356 48 41316ft 505kts
31-Dec-20 10:40 43.728189 -130.530825 48 41315ft 505kts
31-Dec-20 10:41 43.810058 -130.371580 48 41315ft 505kts
31-Dec-20 10:42 43.891572 -130.211806 49 41315ft 506kts
31-Dec-20 10:43 43.973111 -130.051898 48 41316ft 506kts
31-Dec-20 10:44 44.053038 -129.889093 50 41315ft 507kts
31-Dec-20 10:45 44.131401 -129.726029 50 41316ft 506kts
31-Dec-20 10:46 44.210417 -129.562070 50 41316ft 507kts
31-Dec-20 10:47 44.288936 -129.397621 50 41316ft 507kts
31-Dec-20 10:48 44.366821 -129.233060 51 41315ft 507kts
31-Dec-20 10:49 44.444659 -129.067802 50 41316ft 506kts
31-Dec-20 10:50 44.521758 -128.903267 49 41317ft 499kts
31-Dec-20 10:51 44.597542 -128.740986 49 41315ft 497kts
31-Dec-20 10:52 44.673565 -128.577198 49 41314ft 497kts
31-Dec-20 10:53 44.748869 -128.413967 49 41303ft 497kts
31-Dec-20 10:54 44.824159 -128.249424 50 41285ft 498kts
31-Dec-20 10:55 44.898970 -128.085090 50 41279ft 498kts
31-Dec-20 10:56 44.973984 -127.919630 50 41278ft 498kts
31-Dec-20 10:57 45.048728 -127.753812 50 41279ft 499kts
31-Dec-20 10:58 45.123582 -127.587111 49 41279ft 501kts
31-Dec-20 10:59 45.198661 -127.419498 49 41279ft 501kts
31-Dec-20 11:00 45.273240 -127.250874 50 41278ft 502kts
31-Dec-20 11:01 45.346942 -127.083151 49 41280ft 498kts
31-Dec-20 11:02 45.420000 -126.916505 48 41279ft 488kts
31-Dec-20 11:03 45.492318 -126.751490 47 41279ft 487kts
31-Dec-20 11:04 45.573626 -126.601520 40 41279ft 477kts
31-Dec-20 11:05 45.659412 -126.454918 40 41268ft 477kts
31-Dec-20 11:06 45.742489 -126.307080 43 41220ft 482kts
31-Dec-20 11:07 45.825046 -126.154492 42 41178ft 480kts
31-Dec-20 11:08 45.906875 -126.004583 42 41170ft 481kts
31-Dec-20 11:09 45.990057 -125.851583 42 40801ft 480kts
31-Dec-20 11:10 46.070952 -125.701896 42 39814ft 468kts
31-Dec-20 11:11 46.150773 -125.554258 42 38822ft 469kts
31-Dec-20 11:12 46.231380 -125.404028 42 37811ft 469kts
31-Dec-20 11:13 46.310762 -125.254813 43 36818ft 470kts
31-Dec-20 11:14 46.386461 -125.098199 52 35787ft 475kts
31-Dec-20 11:15 46.435596 -124.918287 65 34586ft 486kts
31-Dec-20 11:16 46.468928 -124.731815 64 33189ft 471kts
31-Dec-20 11:17 46.501743 -124.549664 64 31506ft 458kts
31-Dec-20 11:18 46.533404 -124.372160 65 29879ft 445kts
31-Dec-20 11:19 46.564078 -124.198028 66 28177ft 436kts
31-Dec-20 11:20 46.593757 -124.028376 66 26576ft 425kts
31-Dec-20 11:21 46.622159 -123.865010 67 25056ft 414kts
31-Dec-20 11:22 46.649476 -123.703631 70 23509ft 406kts
31-Dec-20 11:23 46.672093 -123.544610 70 22145ft 395kts
31-Dec-20 11:24 46.694207 -123.389334 71 20720ft 387kts
31-Dec-20 11:25 46.715712 -123.236698 72 19291ft 379kts
31-Dec-20 11:26 46.736536 -123.087766 73 17897ft 371kts
31-Dec-20 11:27 46.756439 -122.944383 73 16532ft 365kts
31-Dec-20 11:28 46.776749 -122.796862 73 15117ft 360kts
31-Dec-20 11:29 46.827781 -122.685347 29 13617ft 328kts
31-Dec-20 11:30 46.900273 -122.604250 31 12001ft 324kts
31-Dec-20 11:31 46.974431 -122.544550 11 11095ft 290kts
31-Dec-20 11:32 47.051726 -122.511779 13 10009ft 288kts
31-Dec-20 11:33 47.130325 -122.490147 3 9994ft 286kts
31-Dec-20 11:34 47.209478 -122.476337 3 9960ft 282kts
31-Dec-20 11:35 47.287555 -122.464591 2 8815ft 277kts
31-Dec-20 11:36 47.361746 -122.454441 357 7945ft 260kts
31-Dec-20 11:37 47.431080 -122.454592 356 6854ft 231kts
31-Dec-20 11:38 47.495175 -122.453988 359 5966ft 230kts
31-Dec-20 11:39 47.556916 -122.450490 359 4992ft 215kts
31-Dec-20 11:40 47.617174 -122.447278 359 4979ft 216kts
31-Dec-20 11:41 47.677524 -122.444040 359 4979ft 216kts
31-Dec-20 11:42 47.709175 -122.380469 97 4432ft 228kts
31-Dec-20 11:44 47.667288 -122.319865 154 3983ft 206kts
31-Dec-20 11:45 47.612417 -122.306396 183 3300ft 206kts
31-Dec-20 11:46 47.559299 -122.307288 182 2216ft 169kts
31-Dec-20 11:47 47.517187 -122.307482 181 1409ft 144kts
31-Dec-20 11:48 47.480167 -122.307703 182 704ft 127kts
31-Dec-20 11:49 47.450223 -122.307894 180 340ft 31kts
31-Dec-20 11:50 47.445976 -122.307135 106 340ft 16kts
31-Dec-20 11:51 47.447735 -122.303712 56 340ft 2kts
31-Dec-20 11:52 47.448030 -122.303228 46 340ft 0kts
31-Dec-20 11:53 47.448030 -122.303228 46 340ft 0kts
31-Dec-20 11:54 47.448030 -122.303228 46 340ft 0kts
31-Dec-20 11:55 47.448030 -122.303228 46 340ft 0kts
31-Dec-20 11:56 47.448030 -122.303228 46 340ft 0kts
31-Dec-20 11:57 47.448030 -122.303228 46 340ft 0kts
31-Dec-20 11:58 47.448030 -122.303228 46 340ft 0kts
31-Dec-20 11:58 47.448030 -122.303228 46 340ft 0kts
31-Dec-20 12:00 47.448030 -122.303228 46 340ft 0kts
31-Dec-20 12:01 47.448030 -122.303228 46 340ft 0kts

Navigation Log

Ident Type
Flight plan parsing failed, navigation log unavailable